Time;durP1;ratioP1;P1;durP2;ratioP2;P2;SDS_P1;SDS_P2;PMS_P1;PMS_P2;Temp;Humidity;BMP_temperature;BMP_pressure;BME280_temperature;BME280_humidity;BME280_pressure;Samples;Min_cycle;Max_cycle;Signal;HPM_P1;HPM_P2
2022/08/30 00:02:19;;;;;;;8.10;3.23;;;16.90;30.20;;;;;;5079280;28;20466;-84
2022/08/30 00:04:46;;;;;;;8.43;2.93;;;16.90;30.30;;;;;;5080031;28;20454;-85
2022/08/30 00:07:13;;;;;;;6.43;3.27;;;16.90;30.60;;;;;;5079302;28;20443;-84
2022/08/30 00:09:41;;;;;;;8.37;3.50;;;16.90;30.80;;;;;;5079550;28;20686;-86
2022/08/30 00:12:08;;;;;;;6.37;2.90;;;17.00;30.50;;;;;;5078059;28;20482;-84
2022/08/30 00:14:35;;;;;;;7.47;2.73;;;17.00;31.70;;;;;;5079268;28;20448;-85
2022/08/30 00:17:02;;;;;;;7.07;2.57;;;17.00;32.40;;;;;;5079936;28;20459;-85
2022/08/30 00:19:28;;;;;;;7.57;3.10;;;17.00;32.50;;;;;;5079219;28;20445;-84
2022/08/30 00:21:55;;;;;;;10.27;3.47;;;17.10;31.60;;;;;;5078761;28;20480;-85
2022/08/30 00:24:22;;;;;;;9.17;3.17;;;17.30;31.40;;;;;;5078516;28;20452;-85
2022/08/30 00:26:50;;;;;;;6.43;2.97;;;17.30;30.90;;;;;;5078622;28;21151;-86
2022/08/30 00:29:17;;;;;;;6.43;2.87;;;17.10;31.20;;;;;;5079861;28;20473;-86
2022/08/30 00:31:43;;;;;;;17.40;3.67;;;17.10;31.80;;;;;;5078580;28;20480;-86
2022/08/30 00:34:10;;;;;;;7.17;3.33;;;17.20;31.70;;;;;;5079450;28;20983;-85
2022/08/30 00:36:37;;;;;;;10.07;2.93;;;17.30;32.30;;;;;;5077990;28;20454;-84
2022/08/30 00:39:05;;;;;;;8.50;3.30;;;17.00;32.50;;;;;;5077795;28;20480;-85
2022/08/30 00:41:48;;;;;;;7.47;3.07;;;17.00;33.20;;;;;;5078960;28;20508;-84
2022/08/30 00:44:16;;;;;;;7.50;2.80;;;17.10;34.40;;;;;;5077805;28;20522;-86
2022/08/30 00:46:43;;;;;;;10.60;3.33;;;17.00;34.20;;;;;;5079746;28;20453;-84
2022/08/30 00:49:12;;;;;;;7.97;3.87;;;17.00;33.50;;;;;;5078423;28;20480;-82
2022/08/30 00:51:52;;;;;;;10.23;3.63;;;16.90;34.00;;;;;;5078305;28;20481;-86
2022/08/30 00:54:19;;;;;;;8.73;4.00;;;16.90;35.00;;;;;;5078990;28;20479;-84
2022/08/30 00:56:47;;;;;;;10.10;3.50;;;16.90;34.80;;;;;;5079164;28;20454;-86
2022/08/30 00:59:16;;;;;;;6.10;2.90;;;17.00;34.80;;;;;;5079690;28;20456;-86
2022/08/30 01:01:42;;;;;;;6.33;2.70;;;17.10;35.40;;;;;;5097564;22;20536;-84
2022/08/30 01:04:12;;;;;;;7.80;2.97;;;17.10;34.70;;;;;;5057398;28;20450;-83
2022/08/30 01:06:40;;;;;;;5.70;2.73;;;16.90;35.50;;;;;;5057160;28;20471;-85
2022/08/30 01:09:08;;;;;;;7.40;3.40;;;16.90;36.10;;;;;;5058187;28;20481;-83
2022/08/30 01:11:37;;;;;;;8.30;3.30;;;16.80;36.80;;;;;;5058030;28;20473;-84
2022/08/30 01:14:04;;;;;;;10.70;3.50;;;16.50;37.30;;;;;;5058402;28;20457;-83
2022/08/30 01:16:34;;;;;;;6.47;3.13;;;16.50;38.00;;;;;;5057900;28;20451;-83
2022/08/30 01:19:01;;;;;;;7.93;3.27;;;16.60;39.10;;;;;;5057977;28;20542;-83
2022/08/30 01:21:35;;;;;;;6.17;2.67;;;16.60;39.70;;;;;;5057981;28;20481;-84
2022/08/30 01:24:06;;;;;;;14.20;3.57;;;16.70;39.00;;;;;;5057455;28;20450;-83
2022/08/30 01:26:34;;;;;;;9.37;3.30;;;16.90;38.10;;;;;;5058602;28;20454;-83
2022/08/30 01:29:06;;;;;;;13.43;3.80;;;16.90;37.00;;;;;;5057374;28;21030;-83
2022/08/30 01:31:34;;;;;;;7.13;3.10;;;16.90;37.60;;;;;;5057719;28;20478;-83
2022/08/30 01:34:01;;;;;;;13.53;4.10;;;16.90;38.40;;;;;;5057072;28;20457;-84
2022/08/30 01:36:28;;;;;;;7.50;3.07;;;16.90;38.00;;;;;;5056482;28;20489;-83
2022/08/30 01:38:57;;;;;;;8.00;3.53;;;17.00;38.50;;;;;;5056773;28;20511;-83
2022/08/30 01:41:28;;;;;;;8.40;3.20;;;16.80;38.80;;;;;;5056467;28;20856;-83
2022/08/30 01:43:58;;;;;;;8.67;4.10;;;16.80;39.90;;;;;;5056043;28;20460;-83
2022/08/30 01:46:30;;;;;;;6.77;3.63;;;16.80;40.80;;;;;;5055517;28;20453;-83
2022/08/30 01:48:58;;;;;;;8.77;3.30;;;16.70;41.30;;;;;;5057288;28;21099;-83
2022/08/30 01:51:27;;;;;;;7.53;3.00;;;16.50;41.10;;;;;;5057265;28;20835;-83
2022/08/30 01:53:54;;;;;;;6.80;3.30;;;16.40;41.00;;;;;;5056714;28;20986;-83
2022/08/30 01:56:21;;;;;;;6.93;3.40;;;16.30;41.70;;;;;;5057453;28;21002;-83
2022/08/30 01:58:50;;;;;;;10.10;4.60;;;16.20;43.80;;;;;;5056601;28;20461;-84
2022/08/30 02:01:19;;;;;;;11.50;3.47;;;16.20;44.50;;;;;;5056018;28;20456;-83
2022/08/30 02:03:47;;;;;;;6.90;3.00;;;16.30;45.60;;;;;;5056665;28;20522;-84
2022/08/30 02:06:18;;;;;;;9.90;3.73;;;16.20;44.60;;;;;;5058135;28;20453;-83
2022/08/30 02:08:46;;;;;;;7.00;3.40;;;16.10;45.00;;;;;;5057747;28;20959;-83
2022/08/30 02:11:15;;;;;;;7.97;3.50;;;16.10;46.60;;;;;;5057733;28;20482;-83
2022/08/30 02:13:44;;;;;;;6.90;2.73;;;16.10;46.70;;;;;;5057711;28;20457;-83
2022/08/30 02:16:14;;;;;;;7.40;3.47;;;16.00;47.90;;;;;;5058212;28;20463;-83
2022/08/30 02:18:41;;;;;;;11.63;3.90;;;15.80;48.20;;;;;;5057897;28;20460;-83
2022/08/30 02:21:08;;;;;;;6.37;3.40;;;15.70;49.20;;;;;;5057574;28;20474;-83
2022/08/30 02:23:36;;;;;;;7.20;3.27;;;15.70;50.50;;;;;;5057045;28;20452;-83
2022/08/30 02:26:03;;;;;;;6.07;3.27;;;15.70;51.50;;;;;;5056898;28;20534;-83
2022/08/30 02:28:29;;;;;;;6.80;3.40;;;15.60;50.80;;;;;;5057307;28;20837;-84
2022/08/30 02:30:56;;;;;;;7.10;4.10;;;15.60;51.90;;;;;;5056913;28;20483;-83
2022/08/30 02:33:25;;;;;;;9.67;3.43;;;15.60;52.70;;;;;;5057663;28;20948;-84
2022/08/30 02:35:51;;;;;;;6.63;3.30;;;15.60;53.70;;;;;;5057989;28;20452;-84
2022/08/30 02:38:18;;;;;;;9.60;3.50;;;15.60;54.20;;;;;;5058695;28;20456;-83
2022/08/30 02:40:45;;;;;;;10.00;4.10;;;15.40;54.70;;;;;;5058110;28;20452;-83
2022/08/30 02:43:12;;;;;;;14.50;5.47;;;15.40;54.70;;;;;;5059608;28;20539;-84
2022/08/30 02:45:39;;;;;;;12.07;4.77;;;15.20;55.40;;;;;;5058087;28;20455;-83
2022/08/30 02:48:05;;;;;;;11.40;4.83;;;15.30;57.50;;;;;;5058006;28;20456;-83
2022/08/30 02:50:33;;;;;;;10.60;4.70;;;15.20;58.30;;;;;;5057181;28;20495;-85
2022/08/30 02:53:00;;;;;;;12.47;4.10;;;15.10;59.50;;;;;;5057922;28;20471;-84
2022/08/30 02:55:27;;;;;;;8.73;4.20;;;15.10;60.60;;;;;;5058953;28;20454;-83
2022/08/30 02:57:54;;;;;;;6.43;4.37;;;15.20;61.20;;;;;;5058657;28;20452;-83
2022/08/30 03:00:21;;;;;;;10.50;4.50;;;15.10;61.00;;;;;;5058370;28;20456;-84
2022/08/30 03:02:48;;;;;;;15.07;4.70;;;15.10;61.90;;;;;;5058584;28;20482;-83
2022/08/30 03:05:16;;;;;;;8.90;4.30;;;15.20;61.50;;;;;;5058609;28;20577;-83
2022/08/30 03:07:46;;;;;;;8.50;4.70;;;15.10;60.90;;;;;;5057739;28;20455;-83
2022/08/30 03:10:14;;;;;;;13.93;5.27;;;15.20;61.00;;;;;;5055849;28;21069;-83
2022/08/30 03:12:41;;;;;;;11.00;4.50;;;15.30;61.60;;;;;;5055194;28;20895;-83
2022/08/30 03:15:11;;;;;;;9.77;4.10;;;15.40;62.10;;;;;;5055027;28;20451;-84
2022/08/30 03:17:37;;;;;;;7.77;4.50;;;15.50;61.80;;;;;;5056562;28;20459;-84
2022/08/30 03:20:06;;;;;;;8.53;4.97;;;15.40;62.00;;;;;;5057302;28;20451;-83
2022/08/30 03:22:33;;;;;;;6.73;3.80;;;15.60;61.90;;;;;;5056526;28;20498;-83
2022/08/30 03:25:01;;;;;;;11.63;4.33;;;15.60;62.00;;;;;;5056381;28;20466;-83
2022/08/30 03:27:29;;;;;;;8.93;4.40;;;15.70;62.10;;;;;;5056470;28;20452;-83
2022/08/30 03:29:56;;;;;;;9.77;4.70;;;15.60;61.90;;;;;;5055995;28;20476;-83
2022/08/30 03:32:23;;;;;;;7.20;3.57;;;15.70;61.70;;;;;;5055653;28;20472;-83
2022/08/30 03:34:50;;;;;;;7.77;4.57;;;15.60;61.50;;;;;;5056477;28;20451;-85
2022/08/30 03:37:18;;;;;;;12.20;4.63;;;15.50;61.80;;;;;;5056413;28;20451;-83
2022/08/30 03:39:45;;;;;;;9.23;4.50;;;15.50;63.00;;;;;;5056473;28;20456;-83
2022/08/30 03:42:14;;;;;;;7.37;4.57;;;15.40;64.30;;;;;;5057067;28;20475;-83
2022/08/30 03:44:40;;;;;;;10.83;5.70;;;15.30;63.50;;;;;;5056946;28;20491;-83
2022/08/30 03:47:07;;;;;;;6.70;3.97;;;15.10;65.10;;;;;;5056534;28;20971;-84
2022/08/30 03:49:34;;;;;;;9.00;5.30;;;15.00;65.50;;;;;;5056676;28;20956;-83
2022/08/30 03:52:01;;;;;;;8.87;5.30;;;14.90;66.90;;;;;;5056207;28;20471;-83
2022/08/30 03:54:28;;;;;;;12.37;5.33;;;14.80;67.70;;;;;;5057107;28;20455;-83
2022/08/30 03:56:55;;;;;;;15.03;4.87;;;14.80;69.50;;;;;;5057273;28;20451;-83
2022/08/30 03:59:23;;;;;;;10.30;5.63;;;14.70;70.30;;;;;;5057310;28;20451;-83
2022/08/30 04:01:50;;;;;;;11.20;6.53;;;14.80;71.90;;;;;;5057239;28;21132;-83
2022/08/30 04:04:16;;;;;;;8.17;6.27;;;14.60;73.20;;;;;;5057279;28;20451;-83
2022/08/30 04:06:43;;;;;;;12.20;5.83;;;14.70;76.40;;;;;;5055838;28;20463;-83
2022/08/30 04:09:10;;;;;;;13.83;5.70;;;14.70;73.40;;;;;;5055551;28;20466;-84
2022/08/30 04:11:37;;;;;;;8.53;5.93;;;14.60;72.30;;;;;;5055394;28;20869;-84
2022/08/30 04:14:04;;;;;;;9.07;5.27;;;14.60;70.70;;;;;;5055218;28;20502;-83
2022/08/30 04:16:32;;;;;;;17.33;6.20;;;14.60;71.90;;;;;;5055422;28;20456;-84
2022/08/30 04:18:59;;;;;;;9.67;5.97;;;14.60;72.90;;;;;;5056955;28;20454;-83
2022/08/30 04:21:26;;;;;;;9.70;6.40;;;14.60;73.30;;;;;;5059525;28;20816;-83
2022/08/30 04:23:52;;;;;;;10.23;6.70;;;14.50;73.90;;;;;;5057567;28;20458;-84
2022/08/30 04:26:19;;;;;;;10.73;8.80;;;14.50;75.70;;;;;;5056547;28;20451;-84
2022/08/30 04:28:46;;;;;;;17.80;12.30;;;14.50;78.40;;;;;;5057380;28;20455;-83
2022/08/30 04:31:15;;;;;;;15.40;13.80;;;14.60;81.10;;;;;;5056305;28;20479;-84
2022/08/30 04:33:44;;;;;;;13.43;12.13;;;14.60;81.20;;;;;;5057036;28;20459;-82
2022/08/30 04:36:12;;;;;;;13.90;12.50;;;14.60;80.20;;;;;;5058118;28;20455;-84
2022/08/30 04:38:41;;;;;;;14.43;12.90;;;14.60;81.80;;;;;;5058005;28;20469;-84
2022/08/30 04:41:11;;;;;;;14.93;9.13;;;14.70;81.80;;;;;;5062294;28;20458;-84
2022/08/30 04:43:38;;;;;;;11.30;8.37;;;14.70;81.20;;;;;;5067296;28;20448;-85
2022/08/30 04:46:06;;;;;;;12.33;7.97;;;14.70;80.50;;;;;;5066842;28;20830;-84
2022/08/30 04:48:33;;;;;;;10.13;7.60;;;14.60;79.00;;;;;;5066392;28;20447;-84
2022/08/30 04:51:03;;;;;;;11.87;7.33;;;14.70;80.50;;;;;;5063563;28;20475;-83
2022/08/30 04:53:30;;;;;;;10.57;8.47;;;14.60;81.20;;;;;;5056439;28;20455;-84
2022/08/30 04:55:57;;;;;;;16.83;8.60;;;14.60;81.10;;;;;;5058703;28;20478;-83
2022/08/30 04:58:24;;;;;;;11.10;7.10;;;14.60;81.10;;;;;;5058331;28;20452;-83
2022/08/30 05:00:51;;;;;;;18.17;16.57;;;14.50;79.50;;;;;;5058593;28;20452;-84
2022/08/30 05:03:18;;;;;;;16.73;10.43;;;14.60;84.70;;;;;;5058467;28;20505;-83
2022/08/30 05:05:47;;;;;;;10.77;7.60;;;14.60;81.90;;;;;;5058265;28;20447;-83
2022/08/30 05:08:18;;;;;;;23.13;7.30;;;14.70;80.50;;;;;;5058163;28;20455;-83
2022/08/30 05:10:47;;;;;;;13.50;6.73;;;14.70;77.20;;;;;;5057771;28;21017;-83
2022/08/30 05:13:14;;;;;;;10.20;8.07;;;14.90;77.90;;;;;;5057568;28;20476;-84
2022/08/30 05:15:41;;;;;;;13.43;8.43;;;14.80;77.80;;;;;;5056861;28;20451;-84
2022/08/30 05:18:09;;;;;;;10.10;6.60;;;15.00;78.80;;;;;;5054815;28;20913;-84
2022/08/30 05:20:37;;;;;;;11.40;6.90;;;15.00;76.40;;;;;;5054303;28;20447;-84
2022/08/30 05:23:05;;;;;;;12.20;7.03;;;15.10;75.80;;;;;;5054038;28;20850;-84
2022/08/30 05:25:37;;;;;;;11.93;8.40;;;15.10;75.80;;;;;;5054705;28;21116;-83
2022/08/30 05:28:05;;;;;;;8.30;6.97;;;15.20;78.70;;;;;;5054912;28;20480;-84
2022/08/30 05:30:33;;;;;;;9.87;8.07;;;15.10;78.30;;;;;;5056753;28;20480;-83
2022/08/30 05:33:00;;;;;;;11.70;7.23;;;15.20;78.20;;;;;;5056121;28;20479;-85
2022/08/30 05:35:27;;;;;;;19.33;7.00;;;15.30;77.20;;;;;;5055608;28;20462;-84
2022/08/30 05:37:54;;;;;;;19.40;6.40;;;15.30;75.00;;;;;;5054392;28;20463;-84
2022/08/30 05:40:22;;;;;;;17.30;7.20;;;15.30;74.80;;;;;;5053733;28;20463;-83
2022/08/30 05:42:50;;;;;;;13.97;7.40;;;15.30;75.70;;;;;;5055880;28;20476;-81
2022/08/30 05:45:17;;;;;;;9.57;6.70;;;15.50;75.20;;;;;;5060573;28;20447;-82
2022/08/30 05:47:43;;;;;;;12.80;6.60;;;15.60;75.60;;;;;;5058528;28;20455;-82
2022/08/30 05:50:10;;;;;;;9.93;6.83;;;15.70;76.20;;;;;;5059383;28;20452;-82
2022/08/30 05:52:38;;;;;;;12.33;7.10;;;15.90;76.50;;;;;;5061533;28;20926;-83
2022/08/30 05:55:07;;;;;;;12.00;6.30;;;16.10;75.40;;;;;;5059750;28;20456;-82
2022/08/30 05:57:35;;;;;;;12.90;6.77;;;16.60;73.20;;;;;;5057910;28;20605;-82
2022/08/30 06:00:08;;;;;;;14.30;6.07;;;16.80;71.10;;;;;;5057297;28;20452;-81
2022/08/30 06:02:34;;;;;;;10.30;6.20;;;17.10;67.50;;;;;;5056696;28;20484;-82
2022/08/30 06:05:03;;;;;;;12.03;4.50;;;17.40;65.90;;;;;;5057157;28;20458;-82
2022/08/30 06:07:30;;;;;;;8.70;5.00;;;17.80;62.40;;;;;;5057094;28;20516;-82
2022/08/30 06:09:56;;;;;;;10.00;4.33;;;17.90;60.00;;;;;;5058311;28;20453;-82
2022/08/30 06:12:23;;;;;;;10.90;4.87;;;18.30;58.90;;;;;;5057172;28;21026;-82
2022/08/30 06:14:50;;;;;;;7.93;4.33;;;18.50;57.40;;;;;;5056779;28;20451;-83
2022/08/30 06:17:18;;;;;;;15.07;5.03;;;18.50;54.00;;;;;;5059836;28;20463;-83
2022/08/30 06:19:45;;;;;;;13.37;4.83;;;18.60;52.80;;;;;;5059133;28;20961;-82
2022/08/30 06:22:11;;;;;;;16.77;5.67;;;18.70;52.00;;;;;;5059454;28;20472;-83
2022/08/30 06:24:38;;;;;;;10.90;4.30;;;18.90;52.20;;;;;;5059041;28;20974;-83
2022/08/30 06:27:06;;;;;;;16.10;5.10;;;19.10;52.30;;;;;;5058837;28;20451;-82
2022/08/30 06:29:32;;;;;;;7.30;4.47;;;19.00;50.50;;;;;;5055979;28;20475;-84
2022/08/30 06:31:59;;;;;;;7.50;4.17;;;19.30;49.20;;;;;;5053346;28;20485;-84
2022/08/30 06:34:27;;;;;;;8.77;4.33;;;19.50;46.80;;;;;;5053198;28;20476;-84
2022/08/30 06:36:54;;;;;;;13.00;4.60;;;19.60;46.20;;;;;;5053602;28;20453;-84
2022/08/30 06:39:21;;;;;;;10.97;4.93;;;19.60;45.10;;;;;;5053566;28;20454;-84
2022/08/30 06:41:54;;;;;;;16.03;4.73;;;19.60;44.00;;;;;;5053021;28;20490;-85
2022/08/30 06:47:40;;;;;;;8.67;4.00;;;19.70;44.60;;;;;;5047065;28;20454;-86
2022/08/30 06:50:10;;;;;;;9.70;4.10;;;19.60;44.00;;;;;;5053525;28;20813;-85
2022/08/30 06:52:38;;;;;;;9.63;4.87;;;19.80;44.00;;;;;;5055052;28;20486;-85
2022/08/30 06:55:05;;;;;;;12.13;5.20;;;20.00;44.40;;;;;;5055261;28;20433;-85
2022/08/30 06:57:33;;;;;;;14.13;6.53;;;20.00;43.30;;;;;;5055397;28;20455;-85
2022/08/30 07:00:01;;;;;;;9.43;4.30;;;20.40;41.30;;;;;;5056112;28;20457;-85
2022/08/30 07:02:31;;;;;;;8.10;3.83;;;20.50;39.40;;;;;;5056197;28;20594;-84
2022/08/30 07:04:58;;;;;;;8.00;4.13;;;20.80;39.30;;;;;;5055484;28;20495;-85
2022/08/30 07:07:26;;;;;;;8.10;3.33;;;20.80;38.40;;;;;;5054198;28;20457;-85
2022/08/30 07:09:53;;;;;;;9.00;3.30;;;20.80;36.00;;;;;;5054556;28;20463;-85
2022/08/30 07:12:21;;;;;;;8.07;4.10;;;21.00;35.10;;;;;;5053675;28;20508;-86
2022/08/30 07:14:48;;;;;;;8.03;4.10;;;20.90;35.20;;;;;;5053676;28;21062;-85
2022/08/30 07:23:47;;;;;;;9.23;3.83;;;21.30;35.00;;;;;;5052688;28;20467;-84
2022/08/30 07:26:47;;;;;;;9.30;3.77;;;21.50;35.80;;;;;;5053579;28;20512;-85
2022/08/30 07:29:15;;;;;;;7.70;3.80;;;21.70;32.70;;;;;;5040730;28;20476;-85
2022/08/30 07:31:43;;;;;;;12.07;3.40;;;21.90;30.00;;;;;;5052891;28;20481;-85
2022/08/30 07:34:12;;;;;;;13.40;5.37;;;22.10;31.20;;;;;;5053519;28;20460;-84
2022/08/30 07:36:41;;;;;;;20.13;4.73;;;22.20;28.60;;;;;;5053697;28;21050;-85
2022/08/30 07:39:09;;;;;;;13.47;3.60;;;22.50;28.80;;;;;;5053833;28;20453;-87
2022/08/30 07:41:37;;;;;;;8.00;3.63;;;22.40;27.80;;;;;;5053612;28;20555;-85
2022/08/30 07:44:31;;;;;;;8.07;3.47;;;22.50;26.00;;;;;;5053870;28;20456;-85
2022/08/30 07:47:48;;;;;;;7.57;3.50;;;22.50;26.70;;;;;;5054146;28;20442;-85
2022/08/30 07:50:57;;;;;;;8.23;4.13;;;22.60;24.30;;;;;;5053704;28;20455;-84
2022/08/30 07:53:30;;;;;;;7.20;3.70;;;22.70;24.30;;;;;;5055558;28;20464;-85
2022/08/30 07:55:58;;;;;;;10.60;3.70;;;23.10;23.30;;;;;;5057548;28;20461;-86
2022/08/30 07:58:36;;;;;;;8.13;3.37;;;23.30;22.80;;;;;;5057496;28;20493;-85
2022/08/30 08:01:04;;;;;;;12.23;3.43;;;23.70;22.40;;;;;;5058290;28;20836;-85
2022/08/30 08:03:31;;;;;;;9.03;3.10;;;23.80;19.10;;;;;;5057435;28;21017;-85
2022/08/30 08:05:58;;;;;;;8.20;3.80;;;24.20;19.00;;;;;;5056996;28;20542;-85
2022/08/30 08:08:29;;;;;;;7.90;3.10;;;24.40;19.30;;;;;;5057153;28;20891;-85
2022/08/30 08:10:58;;;;;;;7.83;3.30;;;24.60;16.90;;;;;;5057128;28;20457;-84
2022/08/30 08:13:38;;;;;;;8.80;2.90;;;24.70;15.60;;;;;;5057183;28;20489;-84
2022/08/30 08:16:05;;;;;;;7.10;3.03;;;25.30;15.90;;;;;;5058097;28;20455;-84
2022/08/30 08:18:35;;;;;;;7.37;3.03;;;25.60;14.70;;;;;;5057156;28;20451;-84
2022/08/30 08:21:02;;;;;;;7.77;3.03;;;25.60;12.90;;;;;;5056571;28;20474;-84
2022/08/30 08:23:29;;;;;;;6.23;2.50;;;25.50;13.70;;;;;;5056607;28;20881;-84
2022/08/30 08:25:58;;;;;;;6.57;2.50;;;25.20;13.10;;;;;;5057120;28;20447;-84
2022/08/30 08:28:33;;;;;;;8.17;3.17;;;25.00;11.00;;;;;;5057084;28;20454;-85
2022/08/30 08:33:54;;;;;;;9.03;2.70;;;25.80;10.40;;;;;;5055019;28;20459;-84
2022/08/30 08:36:21;;;;;;;11.57;3.00;;;26.00;8.70;;;;;;5056166;28;20418;-85
2022/08/30 08:38:48;;;;;;;8.90;3.20;;;26.50;8.30;;;;;;5056437;28;20451;-85
2022/08/30 08:41:39;;;;;;;8.60;2.80;;;26.40;7.90;;;;;;5056174;28;21005;-84
2022/08/30 08:44:13;;;;;;;7.67;3.27;;;26.90;5.60;;;;;;5055327;28;20546;-86
2022/08/30 08:46:47;;;;;;;9.80;2.73;;;26.80;5.70;;;;;;5055857;28;20440;-87
2022/08/30 08:49:21;;;;;;;7.87;3.77;;;27.00;4.00;;;;;;5056450;28;20450;-84
2022/08/30 08:54:41;;;;;;;6.07;2.87;;;27.30;4.20;;;;;;5056174;28;21046;-84
2022/08/30 08:57:10;;;;;;;9.63;3.20;;;27.30;2.30;;;;;;5056261;28;20482;-84
2022/08/30 08:59:40;;;;;;;8.70;2.80;;;27.30;2.20;;;;;;5056507;28;20451;-84
2022/08/30 09:02:22;;;;;;;12.83;3.23;;;26.90;3.10;;;;;;5056587;28;21022;-84
2022/08/30 09:04:51;;;;;;;8.13;2.87;;;26.60;3.40;;;;;;5055247;28;20443;-85
2022/08/30 09:07:22;;;;;;;11.70;3.30;;;26.60;3.90;;;;;;5056239;28;20454;-85
2022/08/30 09:09:49;;;;;;;10.33;3.07;;;26.70;3.00;;;;;;5055970;28;20407;-86
2022/08/30 09:12:22;;;;;;;9.67;3.20;;;26.80;2.80;;;;;;5055577;28;20998;-84
2022/08/30 09:14:53;;;;;;;7.20;3.03;;;27.00;3.40;;;;;;5055674;28;20451;-85
2022/08/30 09:17:21;;;;;;;10.10;3.60;;;27.20;1.40;;;;;;5055286;28;20432;-84
2022/08/30 09:19:58;;;;;;;6.60;2.70;;;27.20;1.50;;;;;;5054321;28;20538;-85
2022/08/30 09:22:30;;;;;;;7.60;2.97;;;27.50;1.60;;;;;;5053438;28;20991;-84
2022/08/30 09:25:02;;;;;;;8.80;3.50;;;27.60;1.00;;;;;;5053370;28;20872;-85
2022/08/30 09:27:34;;;;;;;8.13;3.03;;;28.30;1.00;;;;;;5055023;28;20426;-83
2022/08/30 09:30:11;;;;;;;7.03;3.00;;;28.50;1.00;;;;;;5054278;28;20834;-84
2022/08/30 09:32:40;;;;;;;7.43;3.10;;;28.30;1.00;;;;;;5053780;28;20536;-83
2022/08/30 09:35:12;;;;;;;12.27;2.90;;;28.30;1.00;;;;;;5053685;28;20452;-83
2022/08/30 09:37:50;;;;;;;7.73;3.00;;;28.30;1.00;;;;;;5053837;28;20876;-83
2022/08/30 09:40:36;;;;;;;11.50;3.13;;;28.50;1.00;;;;;;5053329;28;20930;-83
2022/08/30 09:43:19;;;;;;;6.20;2.43;;;28.40;1.00;;;;;;5053406;28;20999;-84
2022/08/30 09:45:49;;;;;;;11.10;3.10;;;27.60;1.00;;;;;;5053429;28;20810;-83
2022/08/30 09:48:31;;;;;;;6.43;2.70;;;27.80;1.00;;;;;;5053424;28;20459;-83
2022/08/30 09:51:37;;;;;;;8.93;2.73;;;27.70;1.00;;;;;;5053771;28;20433;-85
2022/08/30 09:54:13;;;;;;;8.30;3.13;;;27.50;1.00;;;;;;5043356;28;20443;-85
2022/08/30 09:59:53;;;;;;;6.63;2.37;;;26.80;1.00;;;;;;5042968;28;20466;-84
2022/08/30 10:02:53;;;;;;;7.37;2.97;;;26.80;1.00;;;;;;5053162;28;20482;-84
2022/08/30 10:05:25;;;;;;;12.83;3.20;;;26.40;1.00;;;;;;5049930;28;20451;-84
2022/08/30 10:08:06;;;;;;;8.53;2.90;;;26.40;1.00;;;;;;5053394;28;20450;-85
2022/08/30 10:10:40;;;;;;;9.57;3.00;;;26.40;1.00;;;;;;5053246;28;20455;-84
2022/08/30 10:13:50;;;;;;;8.33;3.23;;;26.50;1.00;;;;;;5052709;28;20473;-85
2022/08/30 10:16:33;;;;;;;6.67;2.60;;;26.60;1.00;;;;;;5014159;28;20451;-86
2022/08/30 10:19:12;;;;;;;12.70;2.87;;;26.90;1.00;;;;;;5052561;28;21026;-86
2022/08/30 10:21:54;;;;;;;6.33;2.73;;;27.20;1.00;;;;;;5052621;28;21056;-87
2022/08/30 10:24:26;;;;;;;8.07;2.83;;;27.10;1.00;;;;;;5052678;28;20463;-87
2022/08/30 10:27:07;;;;;;;7.90;2.73;;;27.40;1.00;;;;;;5052729;28;20940;-87
2022/08/30 10:29:40;;;;;;;7.90;2.53;;;29.00;1.00;;;;;;5052489;28;20459;-88
2022/08/30 10:32:20;;;;;;;8.10;2.97;;;29.60;1.00;;;;;;5052175;28;20488;-88
2022/08/30 10:34:51;;;;;;;7.40;3.20;;;30.20;1.00;;;;;;5052369;28;20465;-88
2022/08/30 10:37:26;;;;;;;7.93;2.63;;;30.40;1.00;;;;;;5052521;28;20436;-88
2022/08/30 10:39:59;;;;;;;11.40;2.83;;;30.80;1.00;;;;;;5052131;28;20421;-88
2022/08/30 10:42:29;;;;;;;10.63;2.80;;;31.70;1.00;;;;;;5051714;28;20449;-88
2022/08/30 10:45:03;;;;;;;8.40;2.90;;;31.40;1.00;;;;;;5052089;28;20432;-88
2022/08/30 10:47:37;;;;;;;9.07;3.23;;;30.80;1.00;;;;;;5052313;28;20430;-89
2022/08/30 10:50:13;;;;;;;9.10;3.47;;;30.90;1.00;;;;;;5052562;28;20453;-89
2022/08/30 10:52:48;;;;;;;8.57;2.70;;;30.90;1.00;;;;;;5051938;28;20494;-89
2022/08/30 10:55:20;;;;;;;8.17;3.10;;;29.80;1.00;;;;;;5051971;28;20490;-86
2022/08/30 10:57:48;;;;;;;7.03;2.80;;;30.60;1.00;;;;;;5052171;28;20421;-86
2022/08/30 11:00:23;;;;;;;5.47;2.50;;;29.70;1.00;;;;;;5052101;28;20678;-86
2022/08/30 11:03:27;;;;;;;7.73;3.07;;;29.40;1.00;;;;;;5052012;28;20449;-86
2022/08/30 11:06:13;;;;;;;11.57;2.67;;;28.60;1.00;;;;;;5052245;28;20967;-86
2022/08/30 11:09:01;;;;;;;10.40;2.87;;;28.70;1.00;;;;;;5051858;28;20429;-86
2022/08/30 11:11:44;;;;;;;7.23;2.90;;;29.60;1.00;;;;;;5052044;28;20470;-89
2022/08/30 11:14:15;;;;;;;6.10;2.50;;;30.20;1.00;;;;;;5051835;28;21012;-86
2022/08/30 11:16:46;;;;;;;6.50;2.73;;;30.00;1.00;;;;;;5052302;28;20483;-86
2022/08/30 11:19:23;;;;;;;7.40;2.90;;;30.40;1.00;;;;;;5052084;28;20534;-86
2022/08/30 11:21:51;;;;;;;9.50;2.50;;;30.70;1.00;;;;;;5052061;28;20474;-84
2022/08/30 11:24:20;;;;;;;6.90;2.70;;;30.50;1.00;;;;;;5052230;28;20426;-85
2022/08/30 11:26:57;;;;;;;9.80;3.03;;;30.40;1.00;;;;;;5052233;28;20534;-84
2022/08/30 11:29:32;;;;;;;9.83;2.80;;;31.00;1.00;;;;;;5055821;28;20537;-84
2022/08/30 11:32:00;;;;;;;7.23;2.70;;;30.80;1.00;;;;;;5055755;28;20544;-84
2022/08/30 11:34:57;;;;;;;6.87;2.60;;;30.40;1.00;;;;;;5055697;28;20491;-84
2022/08/30 11:37:39;;;;;;;6.77;3.30;;;30.60;1.00;;;;;;5050479;28;20479;-84
2022/08/30 11:40:31;;;;;;;7.63;3.33;;;30.80;1.00;;;;;;5055756;28;20468;-86
2022/08/30 11:43:38;;;;;;;7.53;2.93;;;31.00;1.00;;;;;;5055812;28;20474;-84
2022/08/30 11:46:16;;;;;;;5.77;2.37;;;30.50;1.00;;;;;;5055422;28;20429;-84
2022/08/30 11:48:52;;;;;;;7.73;2.43;;;29.60;1.00;;;;;;5056206;28;20884;-84
2022/08/30 11:51:33;;;;;;;5.77;2.73;;;28.30;1.00;;;;;;5055854;28;20504;-85
2022/08/30 11:57:25;;;;;;;7.17;2.50;;;29.90;1.00;;;;;;5020118;28;20425;-84
2022/08/30 12:00:46;;;;;;;5.60;2.27;;;29.60;1.00;;;;;;5057613;28;20417;-85
2022/08/30 12:04:03;;;;;;;11.00;2.80;;;30.10;1.00;;;;;;5056796;28;20503;-84
2022/08/30 12:14:10;;;;;;;13.07;3.63;;;30.80;1.00;;;;;;4999699;28;20528;-84
2022/08/30 12:26:50;;;;;;;6.10;2.43;;;31.90;1.00;;;;;;4981278;28;20437;-86
2022/08/30 12:29:42;;;;;;;8.80;3.87;;;30.40;1.00;;;;;;4993863;28;20973;-85
2022/08/30 12:32:29;;;;;;;8.10;2.83;;;30.90;1.00;;;;;;4992923;28;20573;-87
2022/08/30 12:41:32;;;;;;;6.73;2.30;;;32.10;1.00;;;;;;4952611;28;20445;-86
2022/08/30 12:44:17;;;;;;;6.90;2.60;;;32.20;1.00;;;;;;5022765;28;20429;-86
2022/08/30 12:46:52;;;;;;;11.13;3.40;;;31.90;1.00;;;;;;5055316;28;20918;-85
2022/08/30 12:52:31;;;;;;;9.90;3.67;;;31.80;1.00;;;;;;5053676;28;20450;-85
2022/08/30 12:55:23;;;;;;;7.77;2.70;;;31.70;1.00;;;;;;5054694;28;20546;-85
2022/08/30 13:01:16;;;;;;;7.50;2.97;;;31.80;1.00;;;;;;5052110;28;20476;-85
2022/08/30 13:04:01;;;;;;;7.40;2.50;;;31.40;1.00;;;;;;5055631;28;20458;-85
2022/08/30 13:10:20;;;;;;;6.33;2.70;;;31.30;1.00;;;;;;5054916;28;20433;-85
2022/08/30 13:13:33;;;;;;;11.00;3.80;;;32.20;1.00;;;;;;5028736;28;20872;-84
2022/08/30 13:23:13;;;;;;;5.97;2.43;;;33.00;1.00;;;;;;5085654;22;20884;-85
2022/08/30 13:26:11;;;;;;;8.20;3.27;;;31.50;1.00;;;;;;5074643;28;20812;-85
2022/08/30 13:29:24;;;;;;;8.93;2.90;;;33.00;1.00;;;;;;5074734;28;20454;-86
2022/08/30 13:32:37;;;;;;;6.90;2.83;;;33.30;1.00;;;;;;5072877;28;20563;-83
2022/08/30 13:35:44;;;;;;;8.57;3.10;;;32.60;1.00;;;;;;5074064;28;20838;-83
2022/08/30 13:38:49;;;;;;;8.07;2.80;;;33.90;1.00;;;;;;5075766;28;20449;-83
2022/08/30 13:41:33;;;;;;;18.43;2.87;;;33.60;1.00;;;;;;5073300;28;20486;-85
2022/08/30 13:44:12;;;;;;;7.23;2.20;;;32.80;1.00;;;;;;5073126;28;20979;-85
2022/08/30 13:46:43;;;;;;;9.13;2.57;;;31.80;1.00;;;;;;5073462;28;20435;-85
2022/08/30 13:49:21;;;;;;;6.97;3.00;;;31.40;1.00;;;;;;5073676;28;20870;-85
2022/08/30 13:55:27;;;;;;;5.40;2.27;;;32.00;1.00;;;;;;4963303;28;20549;-86
2022/08/30 14:01:01;;;;;;;8.27;2.77;;;31.90;1.00;;;;;;5052393;28;20433;-85
2022/08/30 14:03:27;;;;;;;6.83;3.10;;;31.70;1.00;;;;;;5073132;28;20485;-84
2022/08/30 14:05:54;;;;;;;7.33;3.30;;;32.30;1.00;;;;;;5073297;28;20457;-84
2022/08/30 14:08:26;;;;;;;7.17;2.43;;;32.50;1.00;;;;;;5073946;28;20807;-84
2022/08/30 14:10:54;;;;;;;11.73;3.13;;;31.30;1.00;;;;;;5072973;28;20482;-84
2022/08/30 14:13:21;;;;;;;10.33;2.40;;;31.50;1.00;;;;;;5073415;28;20444;-84
2022/08/30 14:15:48;;;;;;;7.00;2.70;;;32.10;1.00;;;;;;5073411;28;20450;-84
2022/08/30 14:18:15;;;;;;;9.07;2.63;;;31.90;1.00;;;;;;5073277;28;20528;-85
2022/08/30 14:20:42;;;;;;;7.93;2.80;;;31.60;1.00;;;;;;5073325;28;20460;-85
2022/08/30 14:23:12;;;;;;;6.23;3.03;;;31.40;1.00;;;;;;5072712;28;20474;-84